createdAt,value
2018-11-10T00:00:20.178Z,15.10
2018-11-10T00:02:50.057Z,15.10
2018-11-10T00:05:20.121Z,15.00
2018-11-10T00:07:49.528Z,14.80
2018-11-10T00:10:19.657Z,14.80
2018-11-10T00:12:49.537Z,14.80
2018-11-10T00:15:18.861Z,14.90
2018-11-10T00:17:48.578Z,15.00
2018-11-10T00:20:17.878Z,15.10
2018-11-10T00:22:47.180Z,15.10
2018-11-10T00:25:16.518Z,15.20
2018-11-10T00:27:46.445Z,15.30
2018-11-10T00:30:18.078Z,15.30
2018-11-10T00:32:48.039Z,15.20
2018-11-10T00:35:17.357Z,15.10
2018-11-10T00:37:46.718Z,15.10
2018-11-10T00:40:16.819Z,15.20
2018-11-10T00:42:46.297Z,15.20
2018-11-10T00:45:15.722Z,15.10
2018-11-10T00:47:45.119Z,15.10
2018-11-10T00:50:14.437Z,15.10
2018-11-10T00:52:44.038Z,15.10
2018-11-10T00:55:13.378Z,15.10
2018-11-10T00:57:42.729Z,15.00
2018-11-10T01:00:13.117Z,15.00
2018-11-10T01:02:43.939Z,15.00
2018-11-10T01:05:13.256Z,15.10
2018-11-10T01:07:42.677Z,15.20
2018-11-10T01:10:13.302Z,15.10
2018-11-10T01:12:42.822Z,15.00
2018-11-10T01:15:14.878Z,15.10
2018-11-10T01:17:44.777Z,15.10
2018-11-10T01:20:14.537Z,15.20
2018-11-10T01:22:43.818Z,15.10
2018-11-10T01:25:13.064Z,15.10
2018-11-10T01:27:42.400Z,15.10
2018-11-10T01:30:14.757Z,15.10
2018-11-10T01:32:45.541Z,15.20
2018-11-10T01:35:15.459Z,15.10
2018-11-10T01:37:45.241Z,15.20
2018-11-10T01:40:15.101Z,15.10
2018-11-10T01:42:44.837Z,15.10
2018-11-10T01:45:16.518Z,14.90
2018-11-10T01:47:46.535Z,15.00
2018-11-10T01:50:15.878Z,15.00
2018-11-10T01:52:45.137Z,15.00
2018-11-10T01:55:14.437Z,15.00
2018-11-10T01:57:43.800Z,14.90
2018-11-10T02:00:17.338Z,14.90
2018-11-10T02:02:47.298Z,15.00
2018-11-10T02:05:17.097Z,15.00
2018-11-10T02:07:46.398Z,15.10
2018-11-10T02:10:15.798Z,15.10
2018-11-10T02:12:45.198Z,15.00
2018-11-10T02:15:16.183Z,15.10
2018-11-10T02:17:45.524Z,15.10
2018-11-10T02:20:15.519Z,15.00
2018-11-10T02:22:45.098Z,15.10
2018-11-10T02:25:14.442Z,15.10
2018-11-10T02:27:43.939Z,15.10
2018-11-10T02:30:13.399Z,15.10
2018-11-10T02:32:43.098Z,15.00
2018-11-10T02:35:12.618Z,15.00
2018-11-10T02:37:42.028Z,15.00
2018-11-10T02:40:14.199Z,15.00
2018-11-10T02:42:43.958Z,15.00
2018-11-10T02:45:14.718Z,14.90
2018-11-10T02:47:45.418Z,14.90
2018-11-10T02:50:15.160Z,15.00
2018-11-10T02:52:44.423Z,15.10
2018-11-10T02:55:13.801Z,15.10
2018-11-10T02:57:43.199Z,15.00
2018-11-10T03:00:13.698Z,15.00
2018-11-10T03:02:42.998Z,15.10
2018-11-10T03:05:12.338Z,15.00
2018-11-10T03:07:41.660Z,15.00
2018-11-10T03:10:11.738Z,15.00
2018-11-10T03:12:41.421Z,15.00
2018-11-10T03:15:11.598Z,15.20
2018-11-10T03:17:40.998Z,15.20
2018-11-10T03:20:13.518Z,15.10
2018-11-10T03:22:43.557Z,15.10
2018-11-10T03:25:12.971Z,15.10
2018-11-10T03:27:42.608Z,15.20
2018-11-10T03:30:11.959Z,15.00
2018-11-10T03:32:41.308Z,15.10
2018-11-10T03:35:10.838Z,15.00
2018-11-10T03:37:40.758Z,15.00
2018-11-10T03:40:12.518Z,14.90
2018-11-10T03:42:41.859Z,14.90
2018-11-10T03:45:12.138Z,14.80
2018-11-10T03:47:41.618Z,14.70
2018-11-10T03:50:11.720Z,14.80
2018-11-10T03:52:41.420Z,14.80
2018-11-10T03:55:10.698Z,14.80
2018-11-10T03:57:40.022Z,14.50
2018-11-10T04:00:13.521Z,14.80
2018-11-10T04:02:44.033Z,14.70
2018-11-10T04:05:13.753Z,14.40
2018-11-10T04:07:44.092Z,14.50
2018-11-10T04:10:13.873Z,14.50
2018-11-10T04:12:43.113Z,14.40
2018-11-10T04:15:12.433Z,14.40
2018-11-10T04:17:41.681Z,14.60
2018-11-10T04:20:11.056Z,14.40
2018-11-10T04:22:40.300Z,14.10
2018-11-10T04:25:11.132Z,14.00
2018-11-10T04:27:40.516Z,14.20
2018-11-10T04:30:11.233Z,14.10
2018-11-10T04:32:40.456Z,14.40
2018-11-10T04:35:09.933Z,14.60
2018-11-10T04:37:39.392Z,14.60
2018-11-10T04:40:09.976Z,14.70
2018-11-10T04:42:40.323Z,14.60
2018-11-10T04:45:11.113Z,14.60
2018-11-10T04:47:40.675Z,14.50
2018-11-10T04:50:11.233Z,14.50
2018-11-10T04:52:41.212Z,14.60
2018-11-10T04:55:11.873Z,14.50
2018-11-10T04:57:41.832Z,14.50
2018-11-10T05:00:14.353Z,14.60
2018-11-10T05:02:44.537Z,14.50
2018-11-10T05:05:13.832Z,14.60
2018-11-10T05:07:43.153Z,14.60
2018-11-10T05:10:12.493Z,14.50
2018-11-10T05:12:41.872Z,14.60
2018-11-10T05:15:12.356Z,14.60
2018-11-10T05:17:41.955Z,14.40
2018-11-10T05:20:11.274Z,14.40
2018-11-10T05:22:40.612Z,14.50
2018-11-10T05:25:10.712Z,14.50
2018-11-10T05:27:40.413Z,14.40
2018-11-10T05:30:10.552Z,14.40
2018-11-10T05:32:39.913Z,14.40
2018-11-10T05:35:09.473Z,14.50
2018-11-10T05:37:38.753Z,14.40
2018-11-10T05:40:09.973Z,14.40
2018-11-10T05:42:39.732Z,14.60
2018-11-10T05:45:09.493Z,14.50
2018-11-10T05:47:39.112Z,14.60
2018-11-10T05:50:09.092Z,14.50
2018-11-10T05:52:38.420Z,14.60
2018-11-10T05:55:08.834Z,14.50
2018-11-10T05:57:38.713Z,14.60
2018-11-10T06:00:11.533Z,14.50
2018-11-10T06:02:40.933Z,14.40
2018-11-10T06:05:10.835Z,14.40
2018-11-10T06:07:40.212Z,14.40
2018-11-10T06:10:11.115Z,14.40
2018-11-10T06:12:41.092Z,14.50
2018-11-10T06:15:10.813Z,14.60
2018-11-10T06:17:40.413Z,14.50
2018-11-10T06:20:11.733Z,14.40
2018-11-10T06:22:41.233Z,14.50
2018-11-10T06:25:11.433Z,14.50
2018-11-10T06:27:40.713Z,14.50
2018-11-10T06:30:11.254Z,14.50
2018-11-10T06:32:40.645Z,14.40
2018-11-10T06:35:10.855Z,14.40
2018-11-10T06:37:40.833Z,14.50
2018-11-10T06:40:12.256Z,14.50
2018-11-10T06:42:42.373Z,14.50
2018-11-10T06:45:11.673Z,14.50
2018-11-10T06:47:41.315Z,14.60
2018-11-10T06:50:11.573Z,14.60
2018-11-10T06:52:40.921Z,14.70
2018-11-10T06:55:11.036Z,14.50
2018-11-10T06:57:40.332Z,14.60
2018-11-10T07:00:12.860Z,14.50
2018-11-10T07:02:42.634Z,14.30
2018-11-10T07:05:12.753Z,14.70
2018-11-10T07:07:42.532Z,14.50
2018-11-10T07:10:11.853Z,14.60
2018-11-10T07:12:41.273Z,14.30
2018-11-10T07:15:10.600Z,14.50
2018-11-10T07:17:40.007Z,14.70
2018-11-10T07:20:09.513Z,14.60
2018-11-10T07:22:38.792Z,14.30
2018-11-10T07:25:08.660Z,14.30
2018-11-10T07:27:38.153Z,14.30
2018-11-10T07:30:11.173Z,14.30
2018-11-10T07:32:41.156Z,14.50
2018-11-10T07:35:11.694Z,14.40
2018-11-10T07:37:41.473Z,14.50
2018-11-10T07:40:12.334Z,14.60
2018-11-10T07:42:41.613Z,14.50
2018-11-10T07:45:12.813Z,14.60
2018-11-10T07:47:42.733Z,14.80
2018-11-10T07:50:12.193Z,14.80
2018-11-10T07:52:42.153Z,14.80
2018-11-10T07:55:13.121Z,14.80
2018-11-10T07:57:42.463Z,14.90
2018-11-10T08:00:14.302Z,14.80
2018-11-10T08:02:43.572Z,14.80
2018-11-10T08:05:13.464Z,14.90
2018-11-10T08:07:43.445Z,14.70
2018-11-10T08:10:13.485Z,14.80
2018-11-10T08:12:43.084Z,14.90
2018-11-10T08:15:14.504Z,15.00
2018-11-10T08:17:43.882Z,15.00
2018-11-10T08:20:13.602Z,15.10
2018-11-10T08:22:42.862Z,15.20
2018-11-10T08:25:13.690Z,15.20
2018-11-10T08:27:43.364Z,15.20
2018-11-10T08:30:13.380Z,15.00
2018-11-10T08:32:43.230Z,15.20
2018-11-10T08:35:13.238Z,15.20
2018-11-10T08:37:42.544Z,15.40
2018-11-10T08:40:14.047Z,15.20
2018-11-10T08:42:43.384Z,15.50
2018-11-10T08:45:14.663Z,15.40
2018-11-10T08:47:44.443Z,15.30
2018-11-10T08:50:14.704Z,15.50
2018-11-10T08:52:44.106Z,15.50
2018-11-10T08:55:13.873Z,15.30
2018-11-10T08:57:43.898Z,15.10
2018-11-10T09:00:13.264Z,15.00
2018-11-10T09:02:42.936Z,15.30
2018-11-10T09:05:12.737Z,15.40
2018-11-10T09:07:42.254Z,15.50
2018-11-10T09:10:13.301Z,15.60
2018-11-10T09:12:42.361Z,15.80
2018-11-10T09:15:13.428Z,15.70
2018-11-10T09:17:43.022Z,15.80
2018-11-10T09:20:13.524Z,15.90
2018-11-10T09:22:43.280Z,15.90
2018-11-10T09:25:13.923Z,16.00
2018-11-10T09:27:43.162Z,16.00
2018-11-10T09:30:14.283Z,16.20
2018-11-10T09:32:43.540Z,16.30
2018-11-10T09:35:13.879Z,16.20
2018-11-10T09:37:43.140Z,16.10
2018-11-10T09:40:14.240Z,16.30
2018-11-10T09:42:43.590Z,16.30
2018-11-10T09:45:14.013Z,16.20
2018-11-10T09:47:43.673Z,15.80
2018-11-10T09:50:17.173Z,16.10
2018-11-10T09:52:47.299Z,16.30
2018-11-10T09:55:17.056Z,16.30
2018-11-10T09:57:46.833Z,16.30
2018-11-10T10:00:18.128Z,16.50
2018-11-10T10:02:47.924Z,16.50
2018-11-10T10:05:17.073Z,16.60
2018-11-10T10:07:46.536Z,16.50
2018-11-10T10:10:17.353Z,16.60
2018-11-10T10:12:47.153Z,16.50
2018-11-10T10:15:17.693Z,16.60
2018-11-10T10:17:47.332Z,16.70
2018-11-10T10:20:18.156Z,16.70
2018-11-10T10:22:48.907Z,16.80
2018-11-10T10:25:19.145Z,16.80
2018-11-10T10:27:49.666Z,16.70
2018-11-10T10:30:21.548Z,16.80
2018-11-10T10:32:50.921Z,16.80
2018-11-10T10:35:21.252Z,16.90
2018-11-10T10:37:51.305Z,16.80
2018-11-10T10:40:20.727Z,16.80
2018-11-10T10:42:50.114Z,16.90
2018-11-10T10:45:20.624Z,16.70
2018-11-10T10:47:49.925Z,16.70
2018-11-10T10:50:20.606Z,16.80
2018-11-10T10:52:49.986Z,16.80
2018-11-10T10:55:19.822Z,16.80
2018-11-10T10:57:50.815Z,16.80
2018-11-10T11:00:25.691Z,17.00
2018-11-10T11:03:03.071Z,16.90
2018-11-10T11:05:37.619Z,17.00
2018-11-10T11:08:07.409Z,16.90
2018-11-10T11:10:36.830Z,16.80
2018-11-10T11:13:06.305Z,16.70
2018-11-10T11:15:36.285Z,16.70
2018-11-10T11:18:05.685Z,16.60
2018-11-10T11:20:34.991Z,16.80
2018-11-10T11:23:04.416Z,16.80
2018-11-10T11:25:33.726Z,16.70
2018-11-10T11:28:03.025Z,16.50
2018-11-10T11:30:33.265Z,16.70
2018-11-10T11:33:02.685Z,16.70
2018-11-10T11:35:32.048Z,16.60
2018-11-10T11:38:01.345Z,16.50
2018-11-10T11:40:30.845Z,16.60
2018-11-10T11:43:00.165Z,16.70
2018-11-10T11:45:29.525Z,16.70
2018-11-10T11:47:58.785Z,16.80
2018-11-10T11:50:28.145Z,16.70
2018-11-10T11:52:57.565Z,16.70
2018-11-10T11:55:26.967Z,16.70
2018-11-10T11:57:56.441Z,16.50
2018-11-10T12:00:25.668Z,16.70
2018-11-10T12:02:55.025Z,16.70
2018-11-10T12:05:24.345Z,16.50
2018-11-10T12:07:53.724Z,16.70
2018-11-10T12:10:23.086Z,16.70
2018-11-10T12:12:52.428Z,16.80
2018-11-10T12:15:22.335Z,16.70
2018-11-10T12:17:51.691Z,16.50
2018-11-10T12:20:21.011Z,16.80
2018-11-10T12:22:50.388Z,16.70
2018-11-10T12:25:19.729Z,16.60
2018-11-10T12:27:49.068Z,16.50
2018-11-10T12:30:18.408Z,16.50
2018-11-10T12:32:47.729Z,16.50
2018-11-10T12:35:16.988Z,16.60
2018-11-10T12:37:46.370Z,16.70
2018-11-10T12:40:15.708Z,16.60
2018-11-10T12:42:45.332Z,16.60
2018-11-10T12:45:14.749Z,16.40
2018-11-10T12:47:44.200Z,16.40
2018-11-10T12:50:14.548Z,16.30
2018-11-10T12:52:44.948Z,16.50
2018-11-10T12:55:15.418Z,16.60
2018-11-10T12:57:45.430Z,16.60
2018-11-10T13:00:16.193Z,16.50
2018-11-10T13:02:46.091Z,16.50
2018-11-10T13:05:15.395Z,16.40
2018-11-10T13:07:46.064Z,16.20
2018-11-10T13:10:15.385Z,16.30
2018-11-10T13:12:45.009Z,16.30
2018-11-10T13:15:14.221Z,16.20
2018-11-10T13:17:43.507Z,16.10
2018-11-10T13:20:14.782Z,16.00
2018-11-10T13:22:44.083Z,16.00
2018-11-10T13:25:14.080Z,16.00
2018-11-10T13:27:43.598Z,15.90
2018-11-10T13:30:13.990Z,15.90
2018-11-10T13:32:43.563Z,16.10
2018-11-10T13:35:12.795Z,15.90
2018-11-10T13:37:42.085Z,15.80
2018-11-10T13:40:11.507Z,15.70
2018-11-10T13:42:40.776Z,15.90
2018-11-10T13:45:13.630Z,15.70
2018-11-10T13:47:43.056Z,15.70
2018-11-10T13:50:12.777Z,15.30
2018-11-10T13:52:43.021Z,15.50
2018-11-10T13:55:12.514Z,15.60
2018-11-10T13:57:41.647Z,15.50
2018-11-10T14:00:15.484Z,15.40
2018-11-10T14:02:44.935Z,15.70
2018-11-10T14:05:14.755Z,15.80
2018-11-10T14:07:44.295Z,15.90
2018-11-10T14:10:14.824Z,15.70
2018-11-10T14:12:45.013Z,15.90
2018-11-10T14:15:14.592Z,15.90
2018-11-10T14:17:44.307Z,15.90
2018-11-10T14:20:14.767Z,15.90
2018-11-10T14:22:45.012Z,16.00
2018-11-10T14:25:15.060Z,16.00
2018-11-10T14:27:45.044Z,16.00
2018-11-10T14:30:15.702Z,16.00
2018-11-10T14:32:45.645Z,15.90
2018-11-10T14:35:14.983Z,15.80
2018-11-10T14:37:44.501Z,15.80
2018-11-10T14:40:15.330Z,15.70
2018-11-10T14:42:45.131Z,15.70
2018-11-10T14:45:15.817Z,15.80
2018-11-10T14:47:45.757Z,15.80
2018-11-10T14:50:15.793Z,15.90
2018-11-10T14:52:45.719Z,15.70
2018-11-10T14:55:15.641Z,15.60
2018-11-10T14:57:44.999Z,15.60
2018-11-10T15:00:17.978Z,15.40
2018-11-10T15:02:47.286Z,15.40
2018-11-10T15:05:16.533Z,15.20
2018-11-10T15:07:45.973Z,15.30
2018-11-10T15:10:16.281Z,15.10
2018-11-10T15:12:46.233Z,15.10
2018-11-10T15:15:16.533Z,15.10
2018-11-10T15:17:46.250Z,15.10
2018-11-10T15:20:16.663Z,15.10
2018-11-10T15:22:46.619Z,15.10
2018-11-10T15:25:17.299Z,15.20
2018-11-10T15:27:47.778Z,15.10
2018-11-10T15:30:18.438Z,15.10
2018-11-10T15:32:48.244Z,14.90
2018-11-10T15:35:18.961Z,14.80
2018-11-10T15:37:49.578Z,14.80
2018-11-10T15:40:19.912Z,14.90
2018-11-10T15:42:49.307Z,14.90
2018-11-10T15:45:20.345Z,14.90
2018-11-10T15:47:49.653Z,14.70
2018-11-10T15:50:19.365Z,14.70
2018-11-10T15:52:48.793Z,14.90
2018-11-10T15:55:18.343Z,14.80
2018-11-10T15:57:47.840Z,14.80
2018-11-10T16:00:18.281Z,14.90
2018-11-10T16:02:47.698Z,14.80
2018-11-10T16:05:17.043Z,14.60
2018-11-10T16:07:46.558Z,14.70
2018-11-10T16:10:15.855Z,14.80
2018-11-10T16:12:45.002Z,14.80
2018-11-10T16:15:15.535Z,14.80
2018-11-10T16:17:44.994Z,14.80
2018-11-10T16:20:17.297Z,14.70
2018-11-10T16:22:48.083Z,14.70
2018-11-10T16:25:17.919Z,14.80
2018-11-10T16:27:47.695Z,14.80
2018-11-10T16:30:18.089Z,14.80
2018-11-10T16:32:48.007Z,14.90
2018-11-10T16:35:17.553Z,14.80
2018-11-10T16:37:46.914Z,14.90
2018-11-10T16:40:18.362Z,15.00
2018-11-10T16:42:48.370Z,15.00
2018-11-10T16:45:18.808Z,14.90
2018-11-10T16:47:48.218Z,14.70
2018-11-10T16:50:17.527Z,14.90
2018-11-10T16:52:46.888Z,14.80
2018-11-10T16:55:16.302Z,14.90
2018-11-10T16:57:45.708Z,14.90
2018-11-10T17:00:16.608Z,14.90
2018-11-10T17:02:46.353Z,14.80
2018-11-10T17:05:15.749Z,14.90
2018-11-10T17:07:45.109Z,14.80
2018-11-10T17:10:15.850Z,14.70
2018-11-10T17:12:45.229Z,14.80
2018-11-10T17:15:14.714Z,14.80
2018-11-10T17:17:44.111Z,14.90
2018-11-10T17:22:50.201Z,15.00
2018-11-10T17:25:19.520Z,14.80
2018-11-10T17:27:49.042Z,14.80
2018-11-10T17:30:19.785Z,14.80
2018-11-10T17:32:49.566Z,14.80
2018-11-10T17:35:18.776Z,14.60
2018-11-10T17:37:48.176Z,14.80
2018-11-10T17:40:17.497Z,14.90
2018-11-10T17:42:47.056Z,14.80
2018-11-10T17:45:18.156Z,14.80
2018-11-10T17:47:47.557Z,14.80
2018-11-10T17:50:17.787Z,14.90
2018-11-10T17:52:47.175Z,14.70
2018-11-10T17:55:17.627Z,14.80
2018-11-10T17:57:47.389Z,14.70
2018-11-10T18:00:16.654Z,14.80
2018-11-10T18:02:46.054Z,14.70
2018-11-10T18:05:16.195Z,14.80
2018-11-10T18:07:45.798Z,14.70
2018-11-10T18:10:16.471Z,15.00
2018-11-10T18:12:46.542Z,14.80
2018-11-10T18:15:16.251Z,14.80
2018-11-10T18:17:45.732Z,14.90
2018-11-10T18:20:16.514Z,14.90
2018-11-10T18:22:46.291Z,15.00
2018-11-10T18:25:15.817Z,14.90
2018-11-10T18:27:45.231Z,15.10
2018-11-10T18:30:15.231Z,14.90
2018-11-10T18:32:44.810Z,14.90
2018-11-10T18:35:14.491Z,15.10
2018-11-10T18:37:43.830Z,14.90
2018-11-10T18:40:14.271Z,15.00
2018-11-10T18:42:43.650Z,14.90
2018-11-10T18:45:13.355Z,15.00
2018-11-10T18:47:42.871Z,14.90
2018-11-10T18:50:15.263Z,15.10
2018-11-10T18:52:45.179Z,15.00
2018-11-10T18:55:15.278Z,15.00
2018-11-10T18:57:45.043Z,15.00
2018-11-10T19:00:15.318Z,15.10
2018-11-10T19:02:44.797Z,15.10
2018-11-10T19:05:15.397Z,15.00
2018-11-10T19:07:44.744Z,14.80
2018-11-10T19:10:15.457Z,15.00
2018-11-10T19:12:44.952Z,15.00
2018-11-10T19:15:17.423Z,15.10
2018-11-10T19:17:47.219Z,15.10
2018-11-10T19:20:17.399Z,15.10
2018-11-10T19:22:46.787Z,15.00
2018-11-10T19:25:16.119Z,14.90
2018-11-10T19:27:45.459Z,15.00
2018-11-10T19:30:16.499Z,15.10
2018-11-10T19:32:47.499Z,15.00
2018-11-10T19:35:17.699Z,15.00
2018-11-10T19:37:47.381Z,15.00
2018-11-10T19:40:16.719Z,15.20
2018-11-10T19:42:46.861Z,15.10
2018-11-10T19:45:16.138Z,15.10
2018-11-10T19:47:46.099Z,15.20
2018-11-10T19:50:16.209Z,15.10
2018-11-10T19:52:45.658Z,15.00
2018-11-10T19:55:16.550Z,15.10
2018-11-10T19:57:45.958Z,15.10
2018-11-10T20:00:19.746Z,15.20
2018-11-10T20:02:49.164Z,15.00
2018-11-10T20:05:18.541Z,15.10
2018-11-10T20:07:47.965Z,14.90
2018-11-10T20:10:17.362Z,15.00
2018-11-10T20:12:46.884Z,15.00
2018-11-10T20:15:16.937Z,15.10
2018-11-10T20:17:46.736Z,14.80
2018-11-10T20:20:17.453Z,14.90
2018-11-10T20:22:46.833Z,15.10
2018-11-10T20:25:17.574Z,15.10
2018-11-10T20:27:46.933Z,15.10
2018-11-10T20:30:17.913Z,15.10
2018-11-10T20:32:47.373Z,15.10
2018-11-10T20:35:16.714Z,15.10
2018-11-10T20:37:46.793Z,15.00
2018-11-10T20:40:16.673Z,15.10
2018-11-10T20:42:46.139Z,15.10
2018-11-10T20:45:19.813Z,15.00
2018-11-10T20:47:49.219Z,15.00
2018-11-10T20:50:18.838Z,14.80
2018-11-10T20:52:48.293Z,15.10
2018-11-10T20:55:17.693Z,15.20
2018-11-10T20:57:47.054Z,15.10
2018-11-10T21:00:17.987Z,15.00
2018-11-10T21:02:47.413Z,14.80
2018-11-10T21:05:16.960Z,14.80
2018-11-10T21:07:46.375Z,15.00
2018-11-10T21:10:17.372Z,15.00
2018-11-10T21:12:47.517Z,15.00
2018-11-10T21:15:17.533Z,14.90
2018-11-10T21:17:47.114Z,14.90
2018-11-10T21:20:16.886Z,14.90
2018-11-10T21:22:46.177Z,14.90
2018-11-10T21:25:16.899Z,14.80
2018-11-10T21:27:46.814Z,14.90
2018-11-10T21:30:17.513Z,14.90
2018-11-10T21:32:47.454Z,14.80
2018-11-10T21:35:16.930Z,14.80
2018-11-10T21:37:46.273Z,14.70
2018-11-10T21:40:17.113Z,14.80
2018-11-10T21:42:46.433Z,14.80
2018-11-10T21:45:16.653Z,14.60
2018-11-10T21:47:46.733Z,14.80
2018-11-10T21:50:18.293Z,14.70
2018-11-10T21:52:47.672Z,14.60
2018-11-10T21:55:18.553Z,14.70
2018-11-10T21:57:48.352Z,14.80
2018-11-10T22:00:20.654Z,14.80
2018-11-10T22:02:50.433Z,14.80
2018-11-10T22:05:20.015Z,14.60
2018-11-10T22:07:49.336Z,14.70
2018-11-10T22:10:19.395Z,14.80
2018-11-10T22:12:48.713Z,14.80
2018-11-10T22:15:19.536Z,14.60
2018-11-10T22:17:49.433Z,14.60
2018-11-10T22:20:20.273Z,14.70
2018-11-10T22:22:49.742Z,14.70
2018-11-10T22:25:19.133Z,14.70
2018-11-10T22:27:49.893Z,14.70
2018-11-10T22:30:20.253Z,14.40
2018-11-10T22:32:50.394Z,14.20
2018-11-10T22:35:20.053Z,14.50
2018-11-10T22:37:49.320Z,14.60
2018-11-10T22:40:19.994Z,14.70
2018-11-10T22:42:49.252Z,14.70
2018-11-10T22:45:19.793Z,14.60
2018-11-10T22:47:49.511Z,14.60
2018-11-10T22:50:20.113Z,14.50
2018-11-10T22:52:49.513Z,14.60
2018-11-10T22:55:18.913Z,14.60
2018-11-10T22:57:48.653Z,14.70
2018-11-10T23:00:20.914Z,14.60
2018-11-10T23:02:51.672Z,14.60
2018-11-10T23:05:21.633Z,14.60
2018-11-10T23:07:50.953Z,14.50
2018-11-10T23:10:20.645Z,14.60
2018-11-10T23:12:51.013Z,14.70
2018-11-10T23:15:20.473Z,14.80
2018-11-10T23:17:49.733Z,14.70
2018-11-10T23:20:19.653Z,14.70
2018-11-10T23:22:49.036Z,14.50
2018-11-10T23:25:19.116Z,14.60
2018-11-10T23:27:48.493Z,14.60
2018-11-10T23:30:19.376Z,14.60
2018-11-10T23:32:48.673Z,14.60
2018-11-10T23:35:18.376Z,14.60
2018-11-10T23:37:47.752Z,14.60
2018-11-10T23:40:17.693Z,14.60
2018-11-10T23:42:46.992Z,14.70
2018-11-10T23:45:16.621Z,14.60
2018-11-10T23:47:46.076Z,14.70
2018-11-10T23:50:16.681Z,14.70
2018-11-10T23:52:46.173Z,14.70
2018-11-10T23:55:16.273Z,14.40
2018-11-10T23:57:45.693Z,14.50
